Time;durP1;ratioP1;P1;durP2;ratioP2;P2;SDS_P1;SDS_P2;PMS_P1;PMS_P2;Temp;Humidity;BMP_temperature;BMP_pressure;BME280_temperature;BME280_humidity;BME280_pressure;Samples;Min_cycle;Max_cycle;Signal;HPM_P1;HPM_P2
2022/11/17 00:00:18;;;;;;;7.40;3.53;;;11.80;99.90;;;;;;7393037;19;20229;-80
2022/11/17 00:02:44;;;;;;;4.80;3.10;;;11.80;99.90;;;;;;7387128;19;20830;-79
2022/11/17 00:05:10;;;;;;;5.07;3.47;;;11.90;99.90;;;;;;7392791;19;20130;-78
2022/11/17 00:07:36;;;;;;;8.40;3.30;;;11.80;99.90;;;;;;7392649;19;20156;-79
2022/11/17 00:10:02;;;;;;;8.57;3.23;;;11.60;99.90;;;;;;7393565;19;20131;-78
2022/11/17 00:15:12;;;;;;;6.83;3.10;;;11.70;99.90;;;;;;7392069;19;20150;-78
2022/11/17 00:17:38;;;;;;;6.03;3.30;;;11.70;99.90;;;;;;7390931;19;20131;-80
2022/11/17 00:22:59;;;;;;;4.13;2.90;;;11.70;99.90;;;;;;7387253;19;20138;-80
2022/11/17 00:25:25;;;;;;;6.30;3.30;;;11.70;99.90;;;;;;7392269;19;22202;-80
2022/11/17 00:27:50;;;;;;;4.37;3.40;;;11.70;99.90;;;;;;7383664;19;20135;-76
2022/11/17 00:35:52;;;;;;;4.23;2.37;;;11.70;99.90;;;;;;7392225;19;20151;-79
2022/11/17 00:38:18;;;;;;;5.10;2.83;;;11.50;99.90;;;;;;7390633;19;20599;-80
2022/11/17 00:40:43;;;;;;;4.60;3.30;;;11.70;99.90;;;;;;7391644;19;20163;-79
2022/11/17 00:43:09;;;;;;;6.73;3.63;;;11.70;99.90;;;;;;7390832;19;20640;-79
2022/11/17 00:45:35;;;;;;;4.73;3.53;;;11.80;99.90;;;;;;7388595;19;20167;-79
2022/11/17 00:48:01;;;;;;;4.93;3.40;;;11.80;99.90;;;;;;7390269;19;20513;-79
2022/11/17 00:50:27;;;;;;;5.40;3.30;;;11.70;99.90;;;;;;7390224;19;20150;-79
2022/11/17 00:52:52;;;;;;;6.17;3.60;;;11.70;99.90;;;;;;7391427;19;20134;-78
2022/11/17 00:55:18;;;;;;;5.50;2.80;;;11.80;99.90;;;;;;7389562;19;20532;-75
2022/11/17 00:57:44;;;;;;;3.90;2.60;;;11.70;99.90;;;;;;7386904;19;20178;-78
2022/11/17 01:00:10;;;;;;;3.87;2.60;;;11.40;99.90;;;;;;7390719;19;20131;-79
2022/11/17 01:02:36;;;;;;;5.20;2.83;;;11.30;99.90;;;;;;7390890;19;21002;-79
2022/11/17 01:05:02;;;;;;;3.70;2.60;;;11.50;99.90;;;;;;7388528;19;20135;-79
2022/11/17 01:07:28;;;;;;;4.00;2.23;;;11.40;99.90;;;;;;7391011;19;20921;-79
2022/11/17 01:09:53;;;;;;;4.37;2.40;;;11.10;99.90;;;;;;7391950;19;20139;-79
2022/11/17 01:12:19;;;;;;;3.33;2.50;;;11.10;99.90;;;;;;7389809;19;20631;-78
2022/11/17 01:14:45;;;;;;;4.57;2.47;;;11.30;99.90;;;;;;7392677;19;20167;-78
2022/11/17 01:17:11;;;;;;;4.53;2.60;;;11.60;99.90;;;;;;7392251;19;20730;-78
2022/11/17 01:19:36;;;;;;;4.40;2.30;;;11.70;99.90;;;;;;7394181;19;20139;-80
2022/11/17 01:22:02;;;;;;;4.63;2.17;;;11.80;99.90;;;;;;7393892;19;20138;-78
2022/11/17 01:24:28;;;;;;;3.70;1.80;;;11.40;99.90;;;;;;7395526;19;20165;-78
2022/11/17 01:26:54;;;;;;;2.13;1.93;;;11.20;99.90;;;;;;7394647;19;20138;-79
2022/11/17 01:29:19;;;;;;;4.27;2.40;;;11.50;99.90;;;;;;7396248;19;20130;-78
2022/11/17 01:31:50;;;;;;;3.17;2.20;;;11.50;99.90;;;;;;7393151;19;20139;-80
2022/11/17 01:34:16;;;;;;;3.00;2.00;;;11.60;99.90;;;;;;7387596;19;20146;-77
2022/11/17 01:39:29;;;;;;;3.53;2.13;;;11.70;99.90;;;;;;7391259;19;20156;-78
2022/11/17 01:41:55;;;;;;;5.20;2.13;;;11.80;99.90;;;;;;7388578;19;20167;-78
2022/11/17 01:44:43;;;;;;;2.93;2.20;;;11.90;99.90;;;;;;7390599;19;20538;-80
2022/11/17 01:47:30;;;;;;;3.23;2.20;;;11.90;99.90;;;;;;7386918;19;20151;-79
2022/11/17 01:50:07;;;;;;;3.97;1.97;;;11.70;99.90;;;;;;7389978;19;20138;-78
2022/11/17 01:52:34;;;;;;;3.87;1.83;;;11.60;99.90;;;;;;7390433;19;20585;-79
2022/11/17 01:55:02;;;;;;;3.00;1.83;;;11.70;99.90;;;;;;7387573;19;20202;-78
2022/11/17 01:57:36;;;;;;;2.83;1.90;;;11.40;99.90;;;;;;7382915;19;20643;-80
2022/11/17 02:00:09;;;;;;;3.87;2.27;;;11.60;99.90;;;;;;7388069;19;20808;-79
2022/11/17 02:02:37;;;;;;;3.57;2.10;;;11.70;99.90;;;;;;7389776;19;20138;-78
2022/11/17 02:05:13;;;;;;;2.70;1.97;;;11.40;99.90;;;;;;7389498;19;20507;-79
2022/11/17 02:07:41;;;;;;;2.30;1.80;;;11.30;99.90;;;;;;7387710;19;20158;-77
2022/11/17 02:10:07;;;;;;;2.23;1.90;;;11.20;99.90;;;;;;7389275;19;20143;-77
2022/11/17 02:12:35;;;;;;;2.30;1.67;;;11.40;99.90;;;;;;7388080;19;20150;-79
2022/11/17 02:15:01;;;;;;;4.60;2.00;;;11.60;99.90;;;;;;7387163;19;20165;-78
2022/11/17 02:17:39;;;;;;;3.40;2.00;;;11.60;99.90;;;;;;7387176;19;20139;-79
2022/11/17 02:20:21;;;;;;;3.73;2.40;;;11.50;99.90;;;;;;7386920;19;20799;-78
2022/11/17 02:23:15;;;;;;;3.13;2.10;;;11.60;99.90;;;;;;7389610;19;20142;-79
2022/11/17 02:26:15;;;;;;;4.57;2.07;;;11.70;99.90;;;;;;7387608;19;20135;-78
2022/11/17 02:28:53;;;;;;;2.20;2.00;;;11.90;99.90;;;;;;7385473;19;20167;-78
2022/11/17 02:31:38;;;;;;;3.37;2.20;;;11.90;99.90;;;;;;7385749;19;20154;-77
2022/11/17 02:34:18;;;;;;;3.40;2.30;;;11.90;99.90;;;;;;7388776;19;20154;-79
2022/11/17 02:36:59;;;;;;;2.53;2.30;;;11.70;99.90;;;;;;7385573;19;20135;-78
2022/11/17 02:39:39;;;;;;;3.13;2.30;;;11.30;99.90;;;;;;7387087;19;20157;-78
2022/11/17 02:42:14;;;;;;;3.20;2.10;;;11.50;99.90;;;;;;7387558;19;20162;-79
2022/11/17 02:44:58;;;;;;;3.80;2.40;;;11.10;99.90;;;;;;7388761;19;20140;-77
2022/11/17 02:47:31;;;;;;;3.03;2.10;;;11.00;99.90;;;;;;7384481;19;20568;-78
2022/11/17 02:50:08;;;;;;;4.37;2.60;;;11.30;99.90;;;;;;7386980;19;20146;-79
2022/11/17 02:52:34;;;;;;;3.00;2.30;;;11.30;99.90;;;;;;7385639;19;20173;-79
2022/11/17 02:55:01;;;;;;;3.50;2.37;;;11.50;99.90;;;;;;7388363;19;20187;-78
2022/11/17 02:57:38;;;;;;;4.00;2.57;;;10.80;99.90;;;;;;7383450;19;20195;-79
2022/11/17 03:00:11;;;;;;;5.07;2.60;;;11.00;99.90;;;;;;7385668;19;20142;-80
2022/11/17 03:02:55;;;;;;;3.20;2.70;;;11.00;99.90;;;;;;7388483;19;20461;-80
2022/11/17 03:05:30;;;;;;;3.83;2.30;;;11.20;99.90;;;;;;7384754;19;20158;-79
2022/11/17 03:08:20;;;;;;;2.83;2.30;;;11.20;99.90;;;;;;7386085;19;20149;-81
2022/11/17 03:11:04;;;;;;;2.43;2.07;;;10.90;99.90;;;;;;7384920;19;20135;-80
2022/11/17 03:13:54;;;;;;;3.63;2.40;;;11.20;99.90;;;;;;7385696;19;20528;-80
2022/11/17 03:16:44;;;;;;;4.80;2.40;;;11.10;99.90;;;;;;7388007;19;20202;-80
2022/11/17 03:19:16;;;;;;;3.60;2.20;;;10.60;99.90;;;;;;7386578;19;20142;-79
2022/11/17 03:22:01;;;;;;;2.90;2.23;;;11.00;99.90;;;;;;7387117;19;20730;-80
2022/11/17 03:24:35;;;;;;;2.93;2.17;;;11.20;99.90;;;;;;7384102;19;20150;-79
2022/11/17 03:27:14;;;;;;;4.87;2.40;;;11.20;99.90;;;;;;7382426;19;20142;-79
2022/11/17 03:29:43;;;;;;;4.33;2.37;;;11.40;99.90;;;;;;7384782;19;20162;-79
2022/11/17 03:32:12;;;;;;;5.47;2.47;;;11.50;99.90;;;;;;7386169;19;20139;-77
2022/11/17 03:34:44;;;;;;;2.70;1.97;;;11.50;99.90;;;;;;7385935;19;20139;-78
2022/11/17 03:37:12;;;;;;;3.13;2.37;;;11.60;99.90;;;;;;7386975;19;20143;-79
2022/11/17 03:39:48;;;;;;;4.23;2.23;;;11.60;99.90;;;;;;7391354;19;20171;-79
2022/11/17 03:42:20;;;;;;;3.13;2.20;;;11.50;99.90;;;;;;7390884;19;20185;-80
2022/11/17 03:44:54;;;;;;;3.17;1.90;;;11.30;99.90;;;;;;7393874;19;20137;-79
2022/11/17 03:47:23;;;;;;;3.87;2.07;;;11.20;99.90;;;;;;7392304;19;20138;-77
2022/11/17 03:50:10;;;;;;;2.80;2.17;;;11.20;99.90;;;;;;7394820;19;20130;-80
2022/11/17 03:52:36;;;;;;;5.03;2.30;;;11.40;99.90;;;;;;7390344;19;20165;-74
2022/11/17 03:55:03;;;;;;;4.93;2.30;;;11.40;99.90;;;;;;7392219;19;20572;-73
2022/11/17 03:57:51;;;;;;;3.17;2.03;;;11.50;99.90;;;;;;7392482;19;20261;-73
2022/11/17 04:00:18;;;;;;;3.67;2.20;;;11.60;99.90;;;;;;7389498;19;20161;-80
2022/11/17 04:02:46;;;;;;;3.47;1.50;;;11.70;99.90;;;;;;7392771;19;20190;-78
2022/11/17 04:05:15;;;;;;;1.90;1.50;;;11.60;99.90;;;;;;7392704;19;20141;-79
2022/11/17 04:07:43;;;;;;;3.67;1.77;;;11.70;99.90;;;;;;7390388;19;20218;-78
2022/11/17 04:10:11;;;;;;;4.27;1.43;;;11.70;99.90;;;;;;7392360;19;20165;-79
2022/11/17 04:15:55;;;;;;;3.00;1.67;;;11.70;99.90;;;;;;7389690;19;20170;-80
2022/11/17 04:18:18;;;;;;;2.33;1.40;;;11.90;99.90;;;;;;7392226;19;20157;-79
2022/11/17 04:20:44;;;;;;;2.47;1.40;;;11.90;99.90;;;;;;7392641;19;20177;-77
2022/11/17 04:23:13;;;;;;;3.17;1.70;;;11.70;99.90;;;;;;7393221;19;20169;-78
2022/11/17 04:28:37;;;;;;;4.23;1.80;;;11.90;99.90;;;;;;7388143;19;20158;-79
2022/11/17 04:31:14;;;;;;;2.37;1.60;;;11.90;99.90;;;;;;7393252;19;20232;-79
2022/11/17 04:33:44;;;;;;;2.40;1.67;;;11.90;99.90;;;;;;7393587;19;20145;-79
2022/11/17 04:36:11;;;;;;;3.17;1.70;;;11.90;99.90;;;;;;7390946;19;20141;-79
2022/11/17 04:38:41;;;;;;;2.27;1.57;;;11.90;99.90;;;;;;7391141;19;20169;-79
2022/11/17 04:43:53;;;;;;;3.47;1.53;;;12.00;99.90;;;;;;7391516;19;20155;-77
2022/11/17 04:46:20;;;;;;;4.63;1.43;;;12.00;99.90;;;;;;7388442;19;20138;-80
2022/11/17 04:48:47;;;;;;;1.93;1.73;;;12.00;99.90;;;;;;7387697;19;20229;-81
2022/11/17 04:51:13;;;;;;;2.03;1.80;;;12.00;99.90;;;;;;7386300;19;20155;-80
2022/11/17 04:53:40;;;;;;;4.53;1.57;;;12.00;99.90;;;;;;7387792;19;20488;-79
2022/11/17 04:56:06;;;;;;;3.33;1.90;;;12.00;99.90;;;;;;7386473;19;20161;-80
2022/11/17 04:58:32;;;;;;;2.67;1.83;;;11.90;99.90;;;;;;7385477;19;20166;-80
2022/11/17 05:01:11;;;;;;;2.47;1.67;;;11.70;99.90;;;;;;7388040;19;20489;-80
2022/11/17 05:03:48;;;;;;;2.70;1.53;;;11.90;99.90;;;;;;7392524;19;20632;-80
2022/11/17 05:06:19;;;;;;;2.30;1.40;;;12.00;99.90;;;;;;7386864;19;20482;-79
2022/11/17 05:08:46;;;;;;;1.43;1.33;;;12.00;99.90;;;;;;7387190;19;20146;-80
2022/11/17 05:13:58;;;;;;;1.63;1.40;;;12.00;99.90;;;;;;7387288;19;20142;-78
2022/11/17 05:19:12;;;;;;;4.20;1.90;;;11.70;99.90;;;;;;7386768;19;20564;-82
2022/11/17 05:21:38;;;;;;;2.50;2.00;;;11.80;99.90;;;;;;7386903;19;20135;-80
2022/11/17 05:24:04;;;;;;;2.30;1.70;;;11.30;99.90;;;;;;7384366;19;20167;-79
2022/11/17 05:26:32;;;;;;;4.17;1.80;;;11.20;99.90;;;;;;7386664;19;20597;-79
2022/11/17 05:29:00;;;;;;;2.10;1.67;;;11.30;99.90;;;;;;7386879;19;20520;-80
2022/11/17 05:31:26;;;;;;;2.60;1.90;;;11.40;99.90;;;;;;7386594;19;20179;-81
2022/11/17 05:33:53;;;;;;;4.63;2.93;;;11.30;99.90;;;;;;7385541;19;20970;-80
2022/11/17 05:36:20;;;;;;;3.73;1.80;;;11.50;99.90;;;;;;7389544;19;20166;-81
2022/11/17 05:38:46;;;;;;;2.87;2.00;;;11.50;99.90;;;;;;7386087;19;20127;-80
2022/11/17 05:41:13;;;;;;;3.20;1.80;;;11.70;99.90;;;;;;7388367;19;20131;-80
2022/11/17 05:43:39;;;;;;;3.33;1.90;;;11.70;99.90;;;;;;7386966;19;20179;-79
2022/11/17 05:46:05;;;;;;;2.00;1.60;;;11.70;99.90;;;;;;7387201;19;20170;-79
2022/11/17 05:48:32;;;;;;;2.10;1.60;;;11.60;99.90;;;;;;7390232;19;20134;-80
2022/11/17 05:50:59;;;;;;;3.43;1.93;;;11.70;99.90;;;;;;7390633;19;20221;-81
2022/11/17 05:53:25;;;;;;;2.10;1.60;;;11.70;99.90;;;;;;7390960;19;20134;-78
2022/11/17 05:56:09;;;;;;;2.93;1.60;;;11.70;99.90;;;;;;7393368;19;20174;-77
2022/11/17 05:58:38;;;;;;;1.97;1.50;;;11.70;99.90;;;;;;7388435;19;20154;-79
2022/11/17 06:01:05;;;;;;;1.77;1.43;;;11.70;99.90;;;;;;7389593;19;20158;-80
2022/11/17 06:03:40;;;;;;;1.90;1.70;;;11.50;99.90;;;;;;7392130;19;20272;-80
2022/11/17 06:06:07;;;;;;;2.53;1.73;;;11.60;99.90;;;;;;7393711;19;20142;-79
2022/11/17 06:08:34;;;;;;;1.77;1.30;;;11.70;99.90;;;;;;7391641;19;20141;-80
2022/11/17 06:11:00;;;;;;;2.13;1.55;;;11.70;99.90;;;;;;7393764;19;20173;-81
2022/11/17 06:13:27;;;;;;;1.80;1.70;;;11.60;99.90;;;;;;7385399;19;20147;-80
2022/11/17 06:16:00;;;;;;;2.37;1.57;;;11.50;99.90;;;;;;7389747;19;20210;-81
2022/11/17 06:18:40;;;;;;;2.10;1.50;;;11.40;99.90;;;;;;7393607;19;20142;-81
2022/11/17 06:21:08;;;;;;;3.10;1.50;;;11.30;99.90;;;;;;7385343;19;20138;-80
2022/11/17 06:23:35;;;;;;;1.77;1.33;;;11.30;99.90;;;;;;7383068;19;20465;-80
2022/11/17 06:26:05;;;;;;;1.87;1.47;;;11.40;99.90;;;;;;7383987;19;20138;-78
2022/11/17 06:28:33;;;;;;;3.23;1.37;;;11.50;99.90;;;;;;7385930;19;20142;-78
2022/11/17 06:30:59;;;;;;;3.83;1.63;;;11.70;99.90;;;;;;7384998;19;20504;-79
2022/11/17 06:33:28;;;;;;;2.60;1.87;;;11.80;99.90;;;;;;7383687;19;20149;-78
2022/11/17 06:35:54;;;;;;;4.07;1.57;;;11.80;99.90;;;;;;7381708;19;20146;-80
2022/11/17 06:38:20;;;;;;;2.47;1.80;;;11.60;99.90;;;;;;7382141;19;20504;-78
2022/11/17 06:40:45;;;;;;;2.97;1.97;;;11.60;99.90;;;;;;7386818;19;20168;-80
2022/11/17 06:43:11;;;;;;;2.50;1.93;;;11.60;99.90;;;;;;7385225;19;20135;-80
2022/11/17 06:45:46;;;;;;;2.47;1.77;;;11.60;99.90;;;;;;7383713;19;20139;-78
2022/11/17 06:48:16;;;;;;;2.77;2.00;;;11.60;99.90;;;;;;7386494;19;20267;-78
2022/11/17 06:50:43;;;;;;;3.57;2.00;;;11.60;99.90;;;;;;7386643;19;20140;-77
2022/11/17 06:53:10;;;;;;;2.10;1.60;;;11.80;99.90;;;;;;7386306;19;20145;-79
2022/11/17 06:55:37;;;;;;;3.27;1.80;;;11.60;99.90;;;;;;7387896;19;20183;-79
2022/11/17 06:58:05;;;;;;;5.43;2.97;;;11.50;99.90;;;;;;7380545;19;20188;-79
2022/11/17 07:00:32;;;;;;;3.77;2.13;;;11.80;99.90;;;;;;7377402;19;20657;-76
2022/11/17 07:03:02;;;;;;;2.30;2.07;;;11.90;99.90;;;;;;7380788;19;20495;-80
2022/11/17 07:05:32;;;;;;;2.90;1.58;;;11.70;99.90;;;;;;7382433;19;20637;-80
2022/11/17 07:08:04;;;;;;;5.50;3.20;;;11.70;99.90;;;;;;7383866;19;20163;-77
2022/11/17 07:10:31;;;;;;;4.63;2.47;;;11.80;99.90;;;;;;7383702;19;20139;-79
2022/11/17 07:12:58;;;;;;;3.13;2.33;;;12.00;99.90;;;;;;7386183;19;20632;-80
2022/11/17 07:15:23;;;;;;;2.27;1.40;;;12.10;99.90;;;;;;7391055;19;20646;-79
2022/11/17 07:17:49;;;;;;;1.90;1.23;;;12.10;99.90;;;;;;7389797;19;20191;-79
2022/11/17 07:20:16;;;;;;;1.80;1.40;;;12.10;99.90;;;;;;7388659;19;20150;-79
2022/11/17 07:22:42;;;;;;;2.60;1.10;;;12.20;99.90;;;;;;7390831;19;20227;-78
2022/11/17 07:25:09;;;;;;;2.07;1.17;;;12.20;99.90;;;;;;7393044;19;20158;-80
2022/11/17 07:27:35;;;;;;;4.03;1.93;;;12.30;99.90;;;;;;7390634;19;20154;-80
2022/11/17 07:30:01;;;;;;;3.63;1.30;;;12.30;99.90;;;;;;7394095;19;20147;-80
2022/11/17 07:32:27;;;;;;;2.33;1.40;;;12.30;99.90;;;;;;7394084;19;20495;-77
2022/11/17 07:34:53;;;;;;;4.37;1.70;;;12.30;99.90;;;;;;7392682;19;20137;-78
2022/11/17 07:37:18;;;;;;;4.40;1.50;;;12.30;99.90;;;;;;7392303;19;20202;-78
2022/11/17 07:39:44;;;;;;;4.23;1.53;;;12.40;99.90;;;;;;7394035;19;20780;-78
2022/11/17 07:42:10;;;;;;;3.60;1.23;;;12.40;99.90;;;;;;7393844;19;20146;-79
2022/11/17 07:44:36;;;;;;;1.53;1.37;;;12.30;99.90;;;;;;7394594;19;20156;-79
2022/11/17 07:47:01;;;;;;;2.20;1.30;;;12.30;99.90;;;;;;7387121;19;20601;-78
2022/11/17 07:49:27;;;;;;;2.43;1.33;;;12.40;99.90;;;;;;7392777;19;20138;-77
2022/11/17 07:51:53;;;;;;;4.97;2.20;;;12.30;99.90;;;;;;7391426;19;20146;-77
2022/11/17 07:54:19;;;;;;;3.70;2.30;;;12.40;99.90;;;;;;7392906;19;20122;-79
2022/11/17 07:56:45;;;;;;;3.57;1.80;;;12.50;99.90;;;;;;7392162;19;20546;-77
2022/11/17 07:59:11;;;;;;;1.83;1.20;;;12.40;99.90;;;;;;7390521;19;20939;-79
2022/11/17 08:01:40;;;;;;;2.47;1.60;;;12.40;99.90;;;;;;7385789;19;20137;-79
2022/11/17 08:04:09;;;;;;;3.50;1.93;;;12.50;99.90;;;;;;7395703;19;20139;-79
2022/11/17 08:06:36;;;;;;;4.10;1.85;;;12.60;99.90;;;;;;7392429;19;20209;-79
2022/11/17 08:09:01;;;;;;;2.10;1.57;;;12.60;99.90;;;;;;7394512;19;20238;-80
2022/11/17 08:11:27;;;;;;;4.17;2.53;;;12.50;99.90;;;;;;7395394;19;20640;-80
2022/11/17 08:13:53;;;;;;;6.03;2.30;;;12.60;99.90;;;;;;7393853;19;20135;-79
2022/11/17 08:16:19;;;;;;;3.47;1.20;;;12.50;99.90;;;;;;7396324;19;20141;-79
2022/11/17 08:18:45;;;;;;;2.07;0.93;;;12.70;99.90;;;;;;7393753;19;20139;-79
2022/11/17 08:21:13;;;;;;;3.67;1.20;;;12.70;99.90;;;;;;7396794;19;20463;-79
2022/11/17 08:23:40;;;;;;;2.97;1.13;;;12.60;99.90;;;;;;7401804;19;20150;-78
2022/11/17 08:26:08;;;;;;;3.13;1.17;;;12.70;99.90;;;;;;7393146;19;20147;-79
2022/11/17 08:28:34;;;;;;;2.47;1.05;;;12.70;99.90;;;;;;7393535;19;20139;-79
2022/11/17 08:31:01;;;;;;;2.83;1.45;;;12.70;99.90;;;;;;7396301;19;20206;-79
2022/11/17 08:33:27;;;;;;;3.43;1.90;;;12.60;99.90;;;;;;7389410;19;20153;-78
2022/11/17 08:35:57;;;;;;;2.67;1.10;;;12.50;99.90;;;;;;7388689;19;20138;-79
2022/11/17 08:38:27;;;;;;;0.80;0.70;;;12.50;99.90;;;;;;7386371;19;20131;-78
2022/11/17 08:40:57;;;;;;;1.23;1.10;;;12.50;99.90;;;;;;7391325;19;20147;-79
2022/11/17 08:43:24;;;;;;;1.65;0.75;;;12.60;99.90;;;;;;7392326;19;20656;-78
2022/11/17 08:45:50;;;;;;;2.33;0.83;;;12.70;99.90;;;;;;7400525;19;20169;-79
2022/11/17 08:48:16;;;;;;;2.60;0.82;;;12.60;99.90;;;;;;7388747;19;20134;-77
2022/11/17 08:50:41;;;;;;;1.10;0.70;;;12.60;99.90;;;;;;7388749;19;20151;-78
2022/11/17 08:54:22;;;;;;;7.97;2.03;;;12.80;99.90;;;;;;7387110;19;20146;-77
2022/11/17 08:57:01;;;;;;;5.07;2.70;;;12.90;99.90;;;;;;7379653;19;20533;-79
2022/11/17 08:59:26;;;;;;;1.52;0.77;;;12.90;99.90;;;;;;7384702;19;20138;-78
2022/11/17 09:01:52;;;;;;;2.28;0.77;;;13.00;99.90;;;;;;7392667;19;20153;-79
2022/11/17 09:04:18;;;;;;;1.55;0.75;;;12.90;99.90;;;;;;7400801;19;20562;-78
2022/11/17 09:06:44;;;;;;;4.40;1.40;;;12.90;99.90;;;;;;7388885;19;20166;-77
2022/11/17 09:09:12;;;;;;;2.65;1.77;;;12.80;99.90;;;;;;7384322;19;20157;-78
2022/11/17 09:11:38;;;;;;;3.60;1.25;;;12.80;99.90;;;;;;7388035;19;20158;-79
2022/11/17 09:14:06;;;;;;;2.00;0.75;;;12.80;99.90;;;;;;7387310;19;20651;-80
2022/11/17 09:16:32;;;;;;;0.60;0.47;;;12.80;99.90;;;;;;7388589;19;20150;-79
2022/11/17 09:18:58;;;;;;;1.58;0.63;;;13.10;99.90;;;;;;7387213;19;20436;-77
2022/11/17 09:21:25;;;;;;;1.97;0.60;;;13.00;99.90;;;;;;7389360;19;20141;-79
2022/11/17 09:23:51;;;;;;;1.45;0.50;;;13.10;99.90;;;;;;7389713;19;20135;-79
2022/11/17 09:26:17;;;;;;;3.10;0.73;;;13.10;99.90;;;;;;7389773;19;20556;-79
2022/11/17 09:28:43;;;;;;;0.82;0.57;;;13.10;99.90;;;;;;7388175;19;20163;-77
2022/11/17 09:31:17;;;;;;;1.53;0.77;;;13.20;99.90;;;;;;7384279;19;20187;-79
2022/11/17 09:33:44;;;;;;;2.03;0.73;;;13.20;99.90;;;;;;7387307;19;20139;-78
2022/11/17 09:36:10;;;;;;;0.70;0.50;;;13.30;99.90;;;;;;7386640;19;20154;-78
2022/11/17 09:38:36;;;;;;;0.93;0.60;;;13.40;99.90;;;;;;7386209;19;20597;-78
2022/11/17 09:41:31;;;;;;;5.43;3.05;;;13.40;99.90;;;;;;7397912;19;20134;-78
2022/11/17 09:44:05;;;;;;;1.88;1.08;;;13.40;99.90;;;;;;7386333;19;20142;-78
2022/11/17 09:46:38;;;;;;;2.03;1.00;;;13.60;99.90;;;;;;7388570;19;20253;-81
2022/11/17 09:49:33;;;;;;;1.77;1.00;;;13.70;99.90;;;;;;7390524;19;20163;-77
2022/11/17 09:52:18;;;;;;;1.30;0.65;;;13.60;99.90;;;;;;7387378;19;20159;-77
2022/11/17 09:54:57;;;;;;;1.38;0.63;;;13.60;99.90;;;;;;7395871;19;20143;-77
2022/11/17 09:57:40;;;;;;;1.63;0.83;;;13.60;99.90;;;;;;7385784;19;20156;-78
2022/11/17 10:00:21;;;;;;;3.35;1.23;;;13.60;99.90;;;;;;7386311;19;20157;-79
2022/11/17 10:02:49;;;;;;;3.85;1.48;;;13.60;99.90;;;;;;7396162;19;20138;-79
2022/11/17 10:05:28;;;;;;;3.13;2.03;;;13.60;99.90;;;;;;7397992;19;20135;-79
2022/11/17 10:07:59;;;;;;;2.38;1.02;;;13.60;99.90;;;;;;7389135;19;20134;-79
2022/11/17 10:10:46;;;;;;;2.28;0.70;;;13.50;99.90;;;;;;7386857;19;20212;-77
2022/11/17 10:13:29;;;;;;;3.28;1.17;;;13.70;99.90;;;;;;7383624;19;20149;-80
2022/11/17 10:16:10;;;;;;;5.07;0.95;;;13.70;99.90;;;;;;7388897;19;20276;-78
2022/11/17 10:18:37;;;;;;;2.42;1.40;;;13.80;99.90;;;;;;7386852;19;20736;-79
2022/11/17 10:21:05;;;;;;;3.22;0.80;;;13.90;99.90;;;;;;7385167;19;20157;-79
2022/11/17 10:23:37;;;;;;;3.47;0.93;;;13.80;99.90;;;;;;7387936;19;20149;-79
2022/11/17 10:26:08;;;;;;;3.13;1.15;;;13.90;99.90;;;;;;7386844;19;20135;-81
2022/11/17 10:28:34;;;;;;;2.13;0.50;;;13.80;99.90;;;;;;7388341;19;20140;-79
2022/11/17 10:31:13;;;;;;;2.65;0.95;;;13.70;99.90;;;;;;7390562;19;20146;-77
2022/11/17 10:33:41;;;;;;;2.55;0.65;;;13.80;99.90;;;;;;7393504;19;20166;-78
2022/11/17 10:36:28;;;;;;;3.15;0.90;;;14.20;99.90;;;;;;7388069;19;20206;-79
2022/11/17 10:38:56;;;;;;;1.42;1.00;;;14.00;99.90;;;;;;7390843;19;20798;-78
2022/11/17 10:41:27;;;;;;;5.55;1.05;;;13.90;99.90;;;;;;7391158;19;20150;-78
2022/11/17 10:44:01;;;;;;;10.98;0.93;;;14.10;99.90;;;;;;7393569;19;20135;-79
2022/11/17 10:46:27;;;;;;;2.30;0.75;;;14.30;99.90;;;;;;7392141;19;20138;-77
2022/11/17 10:49:03;;;;;;;2.92;0.73;;;14.50;99.90;;;;;;7391925;19;20141;-79
2022/11/17 10:51:33;;;;;;;2.72;1.00;;;14.20;99.90;;;;;;7394793;19;20699;-78
2022/11/17 10:54:20;;;;;;;3.65;0.90;;;14.20;99.90;;;;;;7393020;19;20150;-79
2022/11/17 10:57:16;;;;;;;1.90;0.70;;;14.20;99.90;;;;;;7393306;19;20146;-77
2022/11/17 10:59:57;;;;;;;4.38;0.85;;;14.10;99.90;;;;;;7388281;19;20471;-78
2022/11/17 11:02:35;;;;;;;3.38;1.17;;;14.20;99.90;;;;;;7390025;19;20148;-76
2022/11/17 11:05:06;;;;;;;4.10;0.75;;;14.10;99.90;;;;;;7393997;19;20142;-79
2022/11/17 11:07:31;;;;;;;4.55;2.78;;;14.10;99.90;;;;;;7390862;19;20139;-80
2022/11/17 11:10:20;;;;;;;2.83;0.85;;;14.20;99.90;;;;;;7393906;19;20269;-79
2022/11/17 11:13:00;;;;;;;1.77;1.33;;;14.30;99.90;;;;;;7392443;19;20150;-76
2022/11/17 11:15:31;;;;;;;3.72;1.58;;;14.30;99.90;;;;;;7387457;19;20518;-78
2022/11/17 11:17:57;;;;;;;4.88;1.92;;;14.30;99.90;;;;;;7394256;19;20134;-79
2022/11/17 11:20:39;;;;;;;4.68;1.13;;;14.30;99.90;;;;;;7389930;19;20142;-78
2022/11/17 11:23:15;;;;;;;2.47;0.88;;;14.40;99.90;;;;;;7391584;19;20152;-79
2022/11/17 11:25:50;;;;;;;3.63;1.05;;;14.50;99.90;;;;;;7392102;19;20202;-81
2022/11/17 11:28:30;;;;;;;3.50;1.80;;;14.50;99.90;;;;;;7394150;19;20154;-79
2022/11/17 11:31:21;;;;;;;2.05;0.70;;;14.50;99.90;;;;;;7394792;19;20225;-79
2022/11/17 11:33:55;;;;;;;2.65;0.85;;;14.60;99.90;;;;;;7392450;19;20617;-77
2022/11/17 11:36:43;;;;;;;2.22;0.90;;;14.60;99.90;;;;;;7390174;19;20158;-80
2022/11/17 11:39:22;;;;;;;4.22;1.38;;;14.60;99.90;;;;;;7392779;19;20156;-79
2022/11/17 11:41:54;;;;;;;3.05;1.08;;;14.50;99.90;;;;;;7392668;19;20202;-77
2022/11/17 11:44:41;;;;;;;3.95;0.82;;;14.70;99.90;;;;;;7390340;19;20514;-79
2022/11/17 11:47:22;;;;;;;4.38;1.13;;;14.70;99.90;;;;;;7392437;19;20135;-79
2022/11/17 11:49:56;;;;;;;2.28;0.95;;;14.40;99.90;;;;;;7391033;19;20758;-79
2022/11/17 11:52:26;;;;;;;3.55;1.13;;;14.50;99.90;;;;;;7389441;19;20145;-76
2022/11/17 11:55:02;;;;;;;3.55;1.10;;;14.60;99.90;;;;;;7394511;19;20159;-78
2022/11/17 11:57:35;;;;;;;2.15;0.90;;;14.60;99.90;;;;;;7393790;19;20210;-77
2022/11/17 12:00:05;;;;;;;3.00;1.00;;;14.60;99.90;;;;;;7393745;19;20529;-80
2022/11/17 12:03:02;;;;;;;2.03;0.80;;;14.50;99.90;;;;;;7396559;19;20596;-79
2022/11/17 12:05:44;;;;;;;3.80;1.02;;;14.60;99.90;;;;;;7399304;19;20853;-79
2022/11/17 12:08:14;;;;;;;4.05;0.88;;;14.60;99.90;;;;;;7396103;19;20592;-78
2022/11/17 12:14:01;;;;;;;2.17;0.80;;;14.80;99.90;;;;;;7391226;19;20179;-79
2022/11/17 12:16:34;;;;;;;2.90;0.90;;;15.00;99.90;;;;;;7396245;19;20178;-78
2022/11/17 12:19:00;;;;;;;4.53;1.00;;;15.00;99.90;;;;;;7396202;19;20134;-79
2022/11/17 12:21:28;;;;;;;6.72;2.25;;;15.00;99.90;;;;;;7390418;19;20150;-80
2022/11/17 12:24:19;;;;;;;3.13;1.23;;;15.00;99.90;;;;;;7394029;19;20843;-79
2022/11/17 12:26:45;;;;;;;6.45;2.92;;;15.00;99.90;;;;;;7388371;19;20151;-75
2022/11/17 12:29:20;;;;;;;6.30;0.95;;;15.00;99.90;;;;;;7389823;19;20137;-76
2022/11/17 12:31:47;;;;;;;3.67;0.98;;;14.90;99.90;;;;;;7390360;19;20154;-79
2022/11/17 12:34:24;;;;;;;2.90;1.10;;;14.90;99.90;;;;;;7388309;19;20165;-77
2022/11/17 12:37:12;;;;;;;7.55;1.40;;;14.90;99.90;;;;;;7387489;19;20138;-79
2022/11/17 12:39:51;;;;;;;2.97;1.42;;;14.90;99.90;;;;;;7398847;19;20488;-78
2022/11/17 12:42:16;;;;;;;2.15;0.85;;;14.90;99.90;;;;;;7396524;19;20253;-77
2022/11/17 12:44:49;;;;;;;4.97;1.13;;;14.90;99.90;;;;;;7395873;19;20221;-79
2022/11/17 12:47:19;;;;;;;6.90;1.77;;;15.00;99.90;;;;;;7394198;19;20146;-79
2022/11/17 12:49:58;;;;;;;5.45;1.23;;;14.90;99.90;;;;;;7396092;19;20127;-79
2022/11/17 12:53:03;;;;;;;3.33;0.80;;;15.00;99.90;;;;;;7389572;19;20130;-80
2022/11/17 12:55:34;;;;;;;2.33;1.02;;;15.00;99.90;;;;;;7394535;19;20152;-78
2022/11/17 12:58:15;;;;;;;6.80;3.08;;;15.10;99.90;;;;;;7393922;19;20189;-78
2022/11/17 13:01:10;;;;;;;6.15;1.60;;;15.10;99.90;;;;;;7393893;19;20167;-80
2022/11/17 13:04:08;;;;;;;4.82;1.15;;;15.20;99.90;;;;;;7396142;19;20139;-80
2022/11/17 13:06:34;;;;;;;1.88;1.20;;;15.30;99.90;;;;;;7392380;19;20177;-78
2022/11/17 13:09:06;;;;;;;4.00;1.55;;;15.30;99.90;;;;;;7390784;19;20482;-78
2022/11/17 13:11:32;;;;;;;4.80;1.13;;;15.40;99.90;;;;;;7385907;19;20209;-78
2022/11/17 13:14:17;;;;;;;5.72;1.50;;;15.50;99.90;;;;;;7389865;19;20131;-76
2022/11/17 13:16:49;;;;;;;6.55;1.35;;;15.30;99.90;;;;;;7386204;19;20484;-78
2022/11/17 13:19:42;;;;;;;4.00;1.15;;;15.20;99.90;;;;;;7387506;19;20151;-76
2022/11/17 13:22:12;;;;;;;3.67;1.40;;;15.20;99.90;;;;;;7387184;19;20158;-78
2022/11/17 13:24:42;;;;;;;5.28;1.75;;;15.20;99.90;;;;;;7389141;19;20147;-79
2022/11/17 13:27:29;;;;;;;3.42;1.20;;;15.10;99.90;;;;;;7387347;19;20134;-77
2022/11/17 13:30:33;;;;;;;5.03;1.65;;;15.10;99.90;;;;;;7394875;19;20147;-78
2022/11/17 13:33:02;;;;;;;5.47;1.45;;;15.20;99.90;;;;;;7385887;19;20158;-79
2022/11/17 13:35:31;;;;;;;2.40;1.00;;;15.10;99.90;;;;;;7385282;19;20149;-78
2022/11/17 13:38:18;;;;;;;2.13;0.70;;;15.20;99.90;;;;;;7388545;19;20139;-77
2022/11/17 13:40:44;;;;;;;3.22;0.93;;;15.10;99.90;;;;;;7385532;19;20610;-79
2022/11/17 13:43:13;;;;;;;3.58;1.30;;;15.00;99.90;;;;;;7386510;19;20135;-78